sensor_id;sensor_type;location;lat;lon;timestamp;temperature;humidity
56268;DHT22;42175;46.930;9.532;2023-03-01T00:02:21;22.30;33.50
56268;DHT22;42175;46.930;9.532;2023-03-01T00:04:46;22.30;33.40
56268;DHT22;42175;46.930;9.532;2023-03-01T00:07:12;22.30;33.40
56268;DHT22;42175;46.930;9.532;2023-03-01T00:09:38;22.30;33.40
56268;DHT22;42175;46.930;9.532;2023-03-01T00:12:06;22.30;33.40
56268;DHT22;42175;46.930;9.532;2023-03-01T00:14:31;22.40;33.30
56268;DHT22;42175;46.930;9.532;2023-03-01T00:16:57;22.30;33.40
56268;DHT22;42175;46.930;9.532;2023-03-01T00:19:23;22.30;33.40
56268;DHT22;42175;46.930;9.532;2023-03-01T00:21:49;22.30;33.40
56268;DHT22;42175;46.930;9.532;2023-03-01T00:24:15;22.30;33.30
56268;DHT22;42175;46.930;9.532;2023-03-01T00:26:41;22.40;33.40
56268;DHT22;42175;46.930;9.532;2023-03-01T00:29:07;22.40;33.40
56268;DHT22;42175;46.930;9.532;2023-03-01T00:31:33;22.40;33.20
56268;DHT22;42175;46.930;9.532;2023-03-01T00:34:01;22.40;33.10
56268;DHT22;42175;46.930;9.532;2023-03-01T00:36:29;22.40;33.10
56268;DHT22;42175;46.930;9.532;2023-03-01T00:38:55;22.40;33.10
56268;DHT22;42175;46.930;9.532;2023-03-01T00:41:22;22.40;33.10
56268;DHT22;42175;46.930;9.532;2023-03-01T00:43:49;22.40;33.00
56268;DHT22;42175;46.930;9.532;2023-03-01T00:46:20;22.40;33.00
56268;DHT22;42175;46.930;9.532;2023-03-01T00:48:46;22.40;33.00
56268;DHT22;42175;46.930;9.532;2023-03-01T00:51:17;22.40;33.00
56268;DHT22;42175;46.930;9.532;2023-03-01T00:53:44;22.40;33.00
56268;DHT22;42175;46.930;9.532;2023-03-01T00:56:11;22.40;32.90
56268;DHT22;42175;46.930;9.532;2023-03-01T00:58:38;22.50;33.60
56268;DHT22;42175;46.930;9.532;2023-03-01T01:01:15;22.40;32.90
56268;DHT22;42175;46.930;9.532;2023-03-01T01:03:53;22.40;33.00
56268;DHT22;42175;46.930;9.532;2023-03-01T01:06:29;22.40;33.00
56268;DHT22;42175;46.930;9.532;2023-03-01T01:08:56;22.40;32.80
56268;DHT22;42175;46.930;9.532;2023-03-01T01:11:24;22.40;32.90
56268;DHT22;42175;46.930;9.532;2023-03-01T01:13:50;22.40;32.80
56268;DHT22;42175;46.930;9.532;2023-03-01T01:16:18;22.40;32.90
56268;DHT22;42175;46.930;9.532;2023-03-01T01:18:44;22.40;32.90
56268;DHT22;42175;46.930;9.532;2023-03-01T01:21:13;22.40;32.90
56268;DHT22;42175;46.930;9.532;2023-03-01T01:23:40;22.40;32.80
56268;DHT22;42175;46.930;9.532;2023-03-01T01:26:12;22.40;32.90
56268;DHT22;42175;46.930;9.532;2023-03-01T01:28:38;22.40;32.80
56268;DHT22;42175;46.930;9.532;2023-03-01T01:31:05;22.40;32.80
56268;DHT22;42175;46.930;9.532;2023-03-01T01:33:32;22.30;32.80
56268;DHT22;42175;46.930;9.532;2023-03-01T01:35:58;22.30;32.80
56268;DHT22;42175;46.930;9.532;2023-03-01T01:38:24;22.40;32.80
56268;DHT22;42175;46.930;9.532;2023-03-01T01:40:50;22.40;32.90
56268;DHT22;42175;46.930;9.532;2023-03-01T01:43:30;22.40;32.80
56268;DHT22;42175;46.930;9.532;2023-03-01T01:46:21;22.30;32.80
56268;DHT22;42175;46.930;9.532;2023-03-01T01:49:00;22.30;32.70
56268;DHT22;42175;46.930;9.532;2023-03-01T01:51:35;22.30;32.70
56268;DHT22;42175;46.930;9.532;2023-03-01T01:54:14;22.30;32.80
56268;DHT22;42175;46.930;9.532;2023-03-01T01:56:44;22.40;32.80
56268;DHT22;42175;46.930;9.532;2023-03-01T01:59:12;22.30;32.70
56268;DHT22;42175;46.930;9.532;2023-03-01T02:01:38;22.40;32.70
56268;DHT22;42175;46.930;9.532;2023-03-01T02:04:04;22.30;33.40
56268;DHT22;42175;46.930;9.532;2023-03-01T02:06:43;22.30;32.70
56268;DHT22;42175;46.930;9.532;2023-03-01T02:09:14;22.30;32.70
56268;DHT22;42175;46.930;9.532;2023-03-01T02:11:41;22.30;32.70
56268;DHT22;42175;46.930;9.532;2023-03-01T02:14:09;22.30;32.70
56268;DHT22;42175;46.930;9.532;2023-03-01T02:16:40;22.30;32.70
56268;DHT22;42175;46.930;9.532;2023-03-01T02:19:23;22.30;32.70
56268;DHT22;42175;46.930;9.532;2023-03-01T02:27:05;22.30;32.70
56268;DHT22;42175;46.930;9.532;2023-03-01T02:29:47;22.30;32.70
56268;DHT22;42175;46.930;9.532;2023-03-01T02:32:13;22.30;32.60
56268;DHT22;42175;46.930;9.532;2023-03-01T02:34:40;22.30;32.60
56268;DHT22;42175;46.930;9.532;2023-03-01T02:37:14;22.30;32.60
56268;DHT22;42175;46.930;9.532;2023-03-01T02:39:49;22.30;32.60
56268;DHT22;42175;46.930;9.532;2023-03-01T02:42:21;22.30;32.50
56268;DHT22;42175;46.930;9.532;2023-03-01T02:44:49;22.30;32.50
56268;DHT22;42175;46.930;9.532;2023-03-01T02:47:15;22.20;32.50
56268;DHT22;42175;46.930;9.532;2023-03-01T02:49:41;22.30;32.60
56268;DHT22;42175;46.930;9.532;2023-03-01T02:55:08;22.30;32.60
56268;DHT22;42175;46.930;9.532;2023-03-01T02:57:36;22.30;32.50
56268;DHT22;42175;46.930;9.532;2023-03-01T03:00:09;22.30;32.60
56268;DHT22;42175;46.930;9.532;2023-03-01T03:02:36;22.30;32.60
56268;DHT22;42175;46.930;9.532;2023-03-01T03:07:32;22.30;32.70
56268;DHT22;42175;46.930;9.532;2023-03-01T03:09:59;22.20;32.60
56268;DHT22;42175;46.930;9.532;2023-03-01T03:12:25;22.30;32.70
56268;DHT22;42175;46.930;9.532;2023-03-01T03:14:51;22.30;32.70
56268;DHT22;42175;46.930;9.532;2023-03-01T03:17:17;22.30;32.70
56268;DHT22;42175;46.930;9.532;2023-03-01T03:19:42;22.30;32.70
56268;DHT22;42175;46.930;9.532;2023-03-01T03:22:14;22.30;32.70
56268;DHT22;42175;46.930;9.532;2023-03-01T03:24:40;22.30;32.70
56268;DHT22;42175;46.930;9.532;2023-03-01T03:27:06;22.30;32.60
56268;DHT22;42175;46.930;9.532;2023-03-01T03:29:33;22.30;32.60
56268;DHT22;42175;46.930;9.532;2023-03-01T03:31:58;22.30;32.70
56268;DHT22;42175;46.930;9.532;2023-03-01T03:34:24;22.30;32.60
56268;DHT22;42175;46.930;9.532;2023-03-01T03:36:56;22.20;32.50
56268;DHT22;42175;46.930;9.532;2023-03-01T03:39:26;22.30;32.60
56268;DHT22;42175;46.930;9.532;2023-03-01T03:41:53;22.30;32.60
56268;DHT22;42175;46.930;9.532;2023-03-01T03:44:20;22.30;32.50
56268;DHT22;42175;46.930;9.532;2023-03-01T03:46:45;22.30;32.50
56268;DHT22;42175;46.930;9.532;2023-03-01T03:49:11;22.30;32.50
56268;DHT22;42175;46.930;9.532;2023-03-01T03:51:36;22.30;32.50
56268;DHT22;42175;46.930;9.532;2023-03-01T03:54:02;22.30;32.40
56268;DHT22;42175;46.930;9.532;2023-03-01T03:56:28;22.20;32.50
56268;DHT22;42175;46.930;9.532;2023-03-01T03:58:54;22.30;32.50
56268;DHT22;42175;46.930;9.532;2023-03-01T04:01:19;22.20;32.50
56268;DHT22;42175;46.930;9.532;2023-03-01T04:03:45;22.20;32.50
56268;DHT22;42175;46.930;9.532;2023-03-01T04:06:13;22.20;32.50
56268;DHT22;42175;46.930;9.532;2023-03-01T04:08:39;22.20;32.50
56268;DHT22;42175;46.930;9.532;2023-03-01T04:11:06;22.20;32.40
56268;DHT22;42175;46.930;9.532;2023-03-01T04:13:52;22.20;32.50
56268;DHT22;42175;46.930;9.532;2023-03-01T04:16:18;22.20;32.40
56268;DHT22;42175;46.930;9.532;2023-03-01T04:18:44;22.30;32.40
56268;DHT22;42175;46.930;9.532;2023-03-01T04:21:11;22.20;32.40
56268;DHT22;42175;46.930;9.532;2023-03-01T04:23:37;22.20;32.40
56268;DHT22;42175;46.930;9.532;2023-03-01T04:26:04;22.20;32.40
56268;DHT22;42175;46.930;9.532;2023-03-01T04:28:32;22.20;32.40
56268;DHT22;42175;46.930;9.532;2023-03-01T04:31:04;22.20;32.40
56268;DHT22;42175;46.930;9.532;2023-03-01T04:33:48;22.20;32.40
56268;DHT22;42175;46.930;9.532;2023-03-01T04:36:15;22.20;32.40
56268;DHT22;42175;46.930;9.532;2023-03-01T04:38:42;22.20;32.40
56268;DHT22;42175;46.930;9.532;2023-03-01T04:41:14;22.20;32.40
56268;DHT22;42175;46.930;9.532;2023-03-01T04:43:40;22.20;32.40
56268;DHT22;42175;46.930;9.532;2023-03-01T04:46:10;22.20;32.40
56268;DHT22;42175;46.930;9.532;2023-03-01T04:48:38;22.20;32.30
56268;DHT22;42175;46.930;9.532;2023-03-01T04:51:05;22.10;32.30
56268;DHT22;42175;46.930;9.532;2023-03-01T04:53:31;22.10;32.30
56268;DHT22;42175;46.930;9.532;2023-03-01T04:55:58;22.20;32.40
56268;DHT22;42175;46.930;9.532;2023-03-01T04:58:26;22.20;32.40
56268;DHT22;42175;46.930;9.532;2023-03-01T05:00:53;22.20;32.40
56268;DHT22;42175;46.930;9.532;2023-03-01T05:03:19;22.10;32.40
56268;DHT22;42175;46.930;9.532;2023-03-01T05:05:49;22.10;32.30
56268;DHT22;42175;46.930;9.532;2023-03-01T05:08:15;22.10;32.30
56268;DHT22;42175;46.930;9.532;2023-03-01T05:10:48;22.10;32.30
56268;DHT22;42175;46.930;9.532;2023-03-01T05:13:14;22.20;32.90
56268;DHT22;42175;46.930;9.532;2023-03-01T05:15:47;22.10;32.30
56268;DHT22;42175;46.930;9.532;2023-03-01T05:18:13;22.20;32.30
56268;DHT22;42175;46.930;9.532;2023-03-01T05:20:39;22.20;32.30
56268;DHT22;42175;46.930;9.532;2023-03-01T05:23:05;22.20;32.20
56268;DHT22;42175;46.930;9.532;2023-03-01T05:25:32;22.20;32.40
56268;DHT22;42175;46.930;9.532;2023-03-01T05:28:02;22.10;32.30
56268;DHT22;42175;46.930;9.532;2023-03-01T05:30:31;22.10;32.40
56268;DHT22;42175;46.930;9.532;2023-03-01T05:32:58;22.10;32.30
56268;DHT22;42175;46.930;9.532;2023-03-01T05:35:24;22.10;32.30
56268;DHT22;42175;46.930;9.532;2023-03-01T05:37:50;22.10;32.30
56268;DHT22;42175;46.930;9.532;2023-03-01T05:40:19;22.10;32.40
56268;DHT22;42175;46.930;9.532;2023-03-01T05:42:55;22.10;32.50
56268;DHT22;42175;46.930;9.532;2023-03-01T05:45:23;22.10;32.50
56268;DHT22;42175;46.930;9.532;2023-03-01T05:47:50;22.10;33.00
56268;DHT22;42175;46.930;9.532;2023-03-01T05:50:27;22.20;32.90
56268;DHT22;42175;46.930;9.532;2023-03-01T05:53:05;22.10;32.70
56268;DHT22;42175;46.930;9.532;2023-03-01T05:55:33;22.10;32.50
56268;DHT22;42175;46.930;9.532;2023-03-01T05:58:00;22.20;32.50
56268;DHT22;42175;46.930;9.532;2023-03-01T06:00:27;22.20;32.40
56268;DHT22;42175;46.930;9.532;2023-03-01T06:02:57;22.20;32.40
56268;DHT22;42175;46.930;9.532;2023-03-01T06:05:23;22.20;32.50
56268;DHT22;42175;46.930;9.532;2023-03-01T06:07:49;22.20;32.50
56268;DHT22;42175;46.930;9.532;2023-03-01T06:10:16;22.20;32.50
56268;DHT22;42175;46.930;9.532;2023-03-01T06:12:43;22.20;32.50
56268;DHT22;42175;46.930;9.532;2023-03-01T06:15:11;22.10;32.60
56268;DHT22;42175;46.930;9.532;2023-03-01T06:17:39;22.20;33.00
56268;DHT22;42175;46.930;9.532;2023-03-01T06:20:12;22.20;33.10
56268;DHT22;42175;46.930;9.532;2023-03-01T06:22:38;22.20;33.10
56268;DHT22;42175;46.930;9.532;2023-03-01T06:25:05;22.20;33.20
56268;DHT22;42175;46.930;9.532;2023-03-01T06:27:31;22.20;33.20
56268;DHT22;42175;46.930;9.532;2023-03-01T06:29:57;22.20;33.10
56268;DHT22;42175;46.930;9.532;2023-03-01T06:32:23;22.20;33.00
56268;DHT22;42175;46.930;9.532;2023-03-01T06:34:49;22.20;33.00
56268;DHT22;42175;46.930;9.532;2023-03-01T06:37:15;22.20;33.00
56268;DHT22;42175;46.930;9.532;2023-03-01T06:39:41;22.20;33.00
56268;DHT22;42175;46.930;9.532;2023-03-01T06:42:08;22.20;33.20
56268;DHT22;42175;46.930;9.532;2023-03-01T06:44:36;22.20;32.90
56268;DHT22;42175;46.930;9.532;2023-03-01T06:47:02;22.20;32.80
56268;DHT22;42175;46.930;9.532;2023-03-01T06:49:28;22.20;32.70
56268;DHT22;42175;46.930;9.532;2023-03-01T06:51:55;22.20;32.70
56268;DHT22;42175;46.930;9.532;2023-03-01T06:54:21;22.20;32.70
56268;DHT22;42175;46.930;9.532;2023-03-01T06:56:48;22.20;32.60
56268;DHT22;42175;46.930;9.532;2023-03-01T06:59:16;22.20;32.60
56268;DHT22;42175;46.930;9.532;2023-03-01T07:01:42;22.20;32.50
56268;DHT22;42175;46.930;9.532;2023-03-01T07:04:09;22.20;32.50
56268;DHT22;42175;46.930;9.532;2023-03-01T07:06:35;22.20;32.50
56268;DHT22;42175;46.930;9.532;2023-03-01T07:09:01;22.20;32.40
56268;DHT22;42175;46.930;9.532;2023-03-01T07:11:26;22.20;32.30
56268;DHT22;42175;46.930;9.532;2023-03-01T07:13:52;22.20;32.20
56268;DHT22;42175;46.930;9.532;2023-03-01T07:16:18;22.20;32.30
56268;DHT22;42175;46.930;9.532;2023-03-01T07:18:46;22.20;32.20
56268;DHT22;42175;46.930;9.532;2023-03-01T07:21:13;22.20;32.10
56268;DHT22;42175;46.930;9.532;2023-03-01T07:23:39;22.20;32.10
56268;DHT22;42175;46.930;9.532;2023-03-01T07:26:05;22.20;32.10
56268;DHT22;42175;46.930;9.532;2023-03-01T07:28:31;22.20;32.10
56268;DHT22;42175;46.930;9.532;2023-03-01T07:31:04;22.20;32.00
56268;DHT22;42175;46.930;9.532;2023-03-01T07:33:30;22.20;31.90
56268;DHT22;42175;46.930;9.532;2023-03-01T07:36:01;22.20;31.90
56268;DHT22;42175;46.930;9.532;2023-03-01T07:38:27;22.20;31.90
56268;DHT22;42175;46.930;9.532;2023-03-01T07:40:58;22.20;31.90
56268;DHT22;42175;46.930;9.532;2023-03-01T07:43:24;22.20;31.80
56268;DHT22;42175;46.930;9.532;2023-03-01T07:45:50;22.20;31.80
56268;DHT22;42175;46.930;9.532;2023-03-01T07:48:15;22.20;31.70
56268;DHT22;42175;46.930;9.532;2023-03-01T07:50:41;22.20;31.90
56268;DHT22;42175;46.930;9.532;2023-03-01T07:53:07;22.10;31.80
56268;DHT22;42175;46.930;9.532;2023-03-01T07:55:32;22.20;31.80
56268;DHT22;42175;46.930;9.532;2023-03-01T07:57:58;22.20;31.90
56268;DHT22;42175;46.930;9.532;2023-03-01T08:00:23;22.20;31.60
56268;DHT22;42175;46.930;9.532;2023-03-01T08:02:49;22.20;31.60
56268;DHT22;42175;46.930;9.532;2023-03-01T08:05:15;22.20;31.60
56268;DHT22;42175;46.930;9.532;2023-03-01T08:07:41;22.20;31.60
56268;DHT22;42175;46.930;9.532;2023-03-01T08:10:07;22.20;31.60
56268;DHT22;42175;46.930;9.532;2023-03-01T08:12:33;22.20;31.50
56268;DHT22;42175;46.930;9.532;2023-03-01T08:14:58;22.20;31.50
56268;DHT22;42175;46.930;9.532;2023-03-01T08:17:24;22.20;31.30
56268;DHT22;42175;46.930;9.532;2023-03-01T08:19:50;22.20;31.40
56268;DHT22;42175;46.930;9.532;2023-03-01T08:22:15;22.20;31.30
56268;DHT22;42175;46.930;9.532;2023-03-01T08:24:41;22.20;31.30
56268;DHT22;42175;46.930;9.532;2023-03-01T08:27:07;22.30;31.40
56268;DHT22;42175;46.930;9.532;2023-03-01T08:29:33;22.30;31.40
56268;DHT22;42175;46.930;9.532;2023-03-01T08:31:59;22.30;31.40
56268;DHT22;42175;46.930;9.532;2023-03-01T08:34:24;22.30;31.50
56268;DHT22;42175;46.930;9.532;2023-03-01T08:36:50;22.30;31.40
56268;DHT22;42175;46.930;9.532;2023-03-01T08:39:19;22.30;31.40
56268;DHT22;42175;46.930;9.532;2023-03-01T08:41:46;22.30;31.40
56268;DHT22;42175;46.930;9.532;2023-03-01T08:44:13;22.30;31.40
56268;DHT22;42175;46.930;9.532;2023-03-01T08:46:41;22.30;31.50
56268;DHT22;42175;46.930;9.532;2023-03-01T08:49:09;22.40;31.40
56268;DHT22;42175;46.930;9.532;2023-03-01T08:51:35;22.40;31.30
56268;DHT22;42175;46.930;9.532;2023-03-01T08:54:09;22.40;31.40
56268;DHT22;42175;46.930;9.532;2023-03-01T08:56:36;22.40;31.40
56268;DHT22;42175;46.930;9.532;2023-03-01T08:59:03;22.40;31.40
56268;DHT22;42175;46.930;9.532;2023-03-01T09:01:29;22.50;31.50
56268;DHT22;42175;46.930;9.532;2023-03-01T09:03:55;22.50;31.40
56268;DHT22;42175;46.930;9.532;2023-03-01T09:06:21;22.40;31.20
56268;DHT22;42175;46.930;9.532;2023-03-01T09:08:48;22.50;31.40
56268;DHT22;42175;46.930;9.532;2023-03-01T09:11:18;22.50;31.40
56268;DHT22;42175;46.930;9.532;2023-03-01T09:13:45;22.50;31.40
56268;DHT22;42175;46.930;9.532;2023-03-01T09:16:14;22.50;31.40
56268;DHT22;42175;46.930;9.532;2023-03-01T09:18:40;22.50;31.40
56268;DHT22;42175;46.930;9.532;2023-03-01T09:21:08;22.50;31.30
56268;DHT22;42175;46.930;9.532;2023-03-01T09:23:44;22.50;31.30
56268;DHT22;42175;46.930;9.532;2023-03-01T09:26:13;22.50;31.40
56268;DHT22;42175;46.930;9.532;2023-03-01T09:28:39;22.50;31.40
56268;DHT22;42175;46.930;9.532;2023-03-01T09:31:08;22.50;31.30
56268;DHT22;42175;46.930;9.532;2023-03-01T09:33:34;22.50;31.40
56268;DHT22;42175;46.930;9.532;2023-03-01T09:36:05;22.50;31.40
56268;DHT22;42175;46.930;9.532;2023-03-01T09:38:31;22.50;31.40
56268;DHT22;42175;46.930;9.532;2023-03-01T09:40:57;22.50;31.50
56268;DHT22;42175;46.930;9.532;2023-03-01T09:43:51;22.50;31.40
56268;DHT22;42175;46.930;9.532;2023-03-01T09:46:23;22.50;31.50
56268;DHT22;42175;46.930;9.532;2023-03-01T09:48:52;22.50;31.50
56268;DHT22;42175;46.930;9.532;2023-03-01T09:51:33;22.50;31.50
56268;DHT22;42175;46.930;9.532;2023-03-01T09:54:01;22.50;31.60
56268;DHT22;42175;46.930;9.532;2023-03-01T09:56:40;22.50;31.70
56268;DHT22;42175;46.930;9.532;2023-03-01T10:01:53;22.50;31.60
56268;DHT22;42175;46.930;9.532;2023-03-01T10:09:38;22.50;31.60
56268;DHT22;42175;46.930;9.532;2023-03-01T10:12:22;22.50;31.60
56268;DHT22;42175;46.930;9.532;2023-03-01T10:15:14;22.50;31.60
56268;DHT22;42175;46.930;9.532;2023-03-01T10:20:22;22.50;31.60
56268;DHT22;42175;46.930;9.532;2023-03-01T10:22:49;22.60;31.70
56268;DHT22;42175;46.930;9.532;2023-03-01T10:28:29;22.50;31.60
56268;DHT22;42175;46.930;9.532;2023-03-01T10:30:58;22.50;31.60
56268;DHT22;42175;46.930;9.532;2023-03-01T10:33:31;22.60;31.60
56268;DHT22;42175;46.930;9.532;2023-03-01T10:35:57;22.50;31.60
56268;DHT22;42175;46.930;9.532;2023-03-01T10:38:24;22.60;31.70
56268;DHT22;42175;46.930;9.532;2023-03-01T10:41:04;22.60;31.70
56268;DHT22;42175;46.930;9.532;2023-03-01T10:49:21;22.60;31.80
56268;DHT22;42175;46.930;9.532;2023-03-01T10:51:49;22.60;31.80
56268;DHT22;42175;46.930;9.532;2023-03-01T10:54:29;22.60;31.80
56268;DHT22;42175;46.930;9.532;2023-03-01T10:56:59;22.60;31.80
56268;DHT22;42175;46.930;9.532;2023-03-01T11:04:28;22.60;31.80
56268;DHT22;42175;46.930;9.532;2023-03-01T11:07:01;22.60;31.80
56268;DHT22;42175;46.930;9.532;2023-03-01T11:09:32;22.60;31.80
56268;DHT22;42175;46.930;9.532;2023-03-01T11:12:11;22.60;31.80
56268;DHT22;42175;46.930;9.532;2023-03-01T11:14:39;22.60;31.80
56268;DHT22;42175;46.930;9.532;2023-03-01T11:17:30;22.60;31.80
56268;DHT22;42175;46.930;9.532;2023-03-01T11:22:47;22.70;31.80
56268;DHT22;42175;46.930;9.532;2023-03-01T11:25:15;22.60;31.80
56268;DHT22;42175;46.930;9.532;2023-03-01T11:27:44;22.60;31.80
56268;DHT22;42175;46.930;9.532;2023-03-01T11:30:29;22.60;31.80
56268;DHT22;42175;46.930;9.532;2023-03-01T11:33:05;22.60;31.70
56268;DHT22;42175;46.930;9.532;2023-03-01T11:35:53;22.70;31.70
56268;DHT22;42175;46.930;9.532;2023-03-01T11:38:26;22.60;31.70
56268;DHT22;42175;46.930;9.532;2023-03-01T11:41:05;22.70;31.70
56268;DHT22;42175;46.930;9.532;2023-03-01T11:43:37;22.60;31.70
56268;DHT22;42175;46.930;9.532;2023-03-01T11:58:23;22.70;31.80
56268;DHT22;42175;46.930;9.532;2023-03-01T12:34:37;22.70;31.50
56268;DHT22;42175;46.930;9.532;2023-03-01T12:45:34;22.70;31.60
56268;DHT22;42175;46.930;9.532;2023-03-01T12:48:15;22.70;31.40
56268;DHT22;42175;46.930;9.532;2023-03-01T12:50:48;22.70;31.50
56268;DHT22;42175;46.930;9.532;2023-03-01T12:53:34;22.70;31.50
56268;DHT22;42175;46.930;9.532;2023-03-01T12:56:08;22.70;31.50
56268;DHT22;42175;46.930;9.532;2023-03-01T12:58:51;22.70;31.50
56268;DHT22;42175;46.930;9.532;2023-03-01T13:01:40;22.70;31.50
56268;DHT22;42175;46.930;9.532;2023-03-01T13:06:54;22.70;31.30
56268;DHT22;42175;46.930;9.532;2023-03-01T13:09:39;22.70;31.30
56268;DHT22;42175;46.930;9.532;2023-03-01T13:17:53;22.70;31.30
56268;DHT22;42175;46.930;9.532;2023-03-01T13:20:31;22.70;31.30
56268;DHT22;42175;46.930;9.532;2023-03-01T13:28:49;22.70;31.20
56268;DHT22;42175;46.930;9.532;2023-03-01T13:39:26;22.80;31.20
56268;DHT22;42175;46.930;9.532;2023-03-01T13:41:55;22.80;31.10
56268;DHT22;42175;46.930;9.532;2023-03-01T13:44:29;22.80;31.20
56268;DHT22;42175;46.930;9.532;2023-03-01T13:47:16;22.80;31.00
56268;DHT22;42175;46.930;9.532;2023-03-01T13:58:14;22.80;30.90
56268;DHT22;42175;46.930;9.532;2023-03-01T14:00:41;22.80;31.00
56268;DHT22;42175;46.930;9.532;2023-03-01T14:03:14;22.80;30.90
56268;DHT22;42175;46.930;9.532;2023-03-01T14:05:43;22.80;30.70
56268;DHT22;42175;46.930;9.532;2023-03-01T14:08:24;22.80;30.80
56268;DHT22;42175;46.930;9.532;2023-03-01T14:20:07;22.80;30.60
56268;DHT22;42175;46.930;9.532;2023-03-01T14:22:35;22.80;30.60
56268;DHT22;42175;46.930;9.532;2023-03-01T14:25:16;22.80;30.80
56268;DHT22;42175;46.930;9.532;2023-03-01T14:27:43;22.80;30.70
56268;DHT22;42175;46.930;9.532;2023-03-01T14:30:15;22.80;30.80
56268;DHT22;42175;46.930;9.532;2023-03-01T14:32:53;22.80;30.80
56268;DHT22;42175;46.930;9.532;2023-03-01T14:35:25;22.80;30.80
56268;DHT22;42175;46.930;9.532;2023-03-01T14:37:51;22.70;30.80
56268;DHT22;42175;46.930;9.532;2023-03-01T14:42:59;22.70;30.70
56268;DHT22;42175;46.930;9.532;2023-03-01T14:45:28;22.70;31.30
56268;DHT22;42175;46.930;9.532;2023-03-01T14:47:55;22.70;30.60
56268;DHT22;42175;46.930;9.532;2023-03-01T14:50:32;22.70;30.60
56268;DHT22;42175;46.930;9.532;2023-03-01T14:53:01;22.80;30.70
56268;DHT22;42175;46.930;9.532;2023-03-01T14:55:37;22.70;30.70
56268;DHT22;42175;46.930;9.532;2023-03-01T14:58:13;22.70;30.70
56268;DHT22;42175;46.930;9.532;2023-03-01T15:00:39;22.80;30.70
56268;DHT22;42175;46.930;9.532;2023-03-01T15:03:19;22.70;30.60
56268;DHT22;42175;46.930;9.532;2023-03-01T15:05:45;22.70;30.50
56268;DHT22;42175;46.930;9.532;2023-03-01T15:08:18;22.70;30.50
56268;DHT22;42175;46.930;9.532;2023-03-01T15:10:57;22.70;30.50
56268;DHT22;42175;46.930;9.532;2023-03-01T15:13:25;22.70;30.50
56268;DHT22;42175;46.930;9.532;2023-03-01T15:15:52;22.70;30.60
56268;DHT22;42175;46.930;9.532;2023-03-01T15:18:26;22.70;30.60
56268;DHT22;42175;46.930;9.532;2023-03-01T15:20:53;22.80;31.30
56268;DHT22;42175;46.930;9.532;2023-03-01T15:23:29;22.80;30.60
56268;DHT22;42175;46.930;9.532;2023-03-01T15:25:56;22.70;30.60
56268;DHT22;42175;46.930;9.532;2023-03-01T15:28:32;22.70;30.50
56268;DHT22;42175;46.930;9.532;2023-03-01T15:31:33;22.70;30.60
56268;DHT22;42175;46.930;9.532;2023-03-01T15:34:22;22.80;30.70
56268;DHT22;42175;46.930;9.532;2023-03-01T15:36:49;22.70;30.60
56268;DHT22;42175;46.930;9.532;2023-03-01T15:41:56;22.70;30.60
56268;DHT22;42175;46.930;9.532;2023-03-01T15:44:29;22.80;30.60
56268;DHT22;42175;46.930;9.532;2023-03-01T15:46:55;22.70;30.50
56268;DHT22;42175;46.930;9.532;2023-03-01T15:49:40;22.70;30.50
56268;DHT22;42175;46.930;9.532;2023-03-01T15:52:29;22.70;30.50
56268;DHT22;42175;46.930;9.532;2023-03-01T15:55:01;22.70;30.60
56268;DHT22;42175;46.930;9.532;2023-03-01T15:57:28;22.70;30.50
56268;DHT22;42175;46.930;9.532;2023-03-01T15:59:54;22.70;30.60
56268;DHT22;42175;46.930;9.532;2023-03-01T16:02:21;22.70;30.50
56268;DHT22;42175;46.930;9.532;2023-03-01T16:04:47;22.70;30.60
56268;DHT22;42175;46.930;9.532;2023-03-01T16:07:15;22.70;30.60
56268;DHT22;42175;46.930;9.532;2023-03-01T16:09:41;22.70;30.60
56268;DHT22;42175;46.930;9.532;2023-03-01T16:12:14;22.70;30.60
56268;DHT22;42175;46.930;9.532;2023-03-01T16:14:40;22.70;30.60
56268;DHT22;42175;46.930;9.532;2023-03-01T16:17:05;22.70;30.60
56268;DHT22;42175;46.930;9.532;2023-03-01T16:19:33;22.70;30.50
56268;DHT22;42175;46.930;9.532;2023-03-01T16:21:59;22.70;30.50
56268;DHT22;42175;46.930;9.532;2023-03-01T16:24:24;22.70;30.60
56268;DHT22;42175;46.930;9.532;2023-03-01T16:26:51;22.70;30.50
56268;DHT22;42175;46.930;9.532;2023-03-01T16:29:17;22.70;30.50
56268;DHT22;42175;46.930;9.532;2023-03-01T16:31:42;22.70;30.60
56268;DHT22;42175;46.930;9.532;2023-03-01T16:34:08;22.70;30.50
56268;DHT22;42175;46.930;9.532;2023-03-01T16:36:33;22.70;30.40
56268;DHT22;42175;46.930;9.532;2023-03-01T16:39:00;22.70;30.40
56268;DHT22;42175;46.930;9.532;2023-03-01T16:41:27;22.70;30.50
56268;DHT22;42175;46.930;9.532;2023-03-01T16:43:53;22.70;30.50
56268;DHT22;42175;46.930;9.532;2023-03-01T16:46:26;22.70;30.50
56268;DHT22;42175;46.930;9.532;2023-03-01T16:48:54;22.70;30.50
56268;DHT22;42175;46.930;9.532;2023-03-01T16:51:21;22.70;30.50
56268;DHT22;42175;46.930;9.532;2023-03-01T16:53:48;22.70;30.50
56268;DHT22;42175;46.930;9.532;2023-03-01T16:56:14;22.70;30.40
56268;DHT22;42175;46.930;9.532;2023-03-01T16:58:40;22.70;30.40
56268;DHT22;42175;46.930;9.532;2023-03-01T17:01:18;22.70;30.50
56268;DHT22;42175;46.930;9.532;2023-03-01T17:03:45;22.70;30.40
56268;DHT22;42175;46.930;9.532;2023-03-01T17:06:17;22.70;30.40
56268;DHT22;42175;46.930;9.532;2023-03-01T17:08:45;22.70;30.40
56268;DHT22;42175;46.930;9.532;2023-03-01T17:11:20;22.70;30.40
56268;DHT22;42175;46.930;9.532;2023-03-01T17:13:46;22.70;30.40
56268;DHT22;42175;46.930;9.532;2023-03-01T17:16:15;22.70;30.40
56268;DHT22;42175;46.930;9.532;2023-03-01T17:18:42;22.70;30.90
56268;DHT22;42175;46.930;9.532;2023-03-01T17:21:08;22.70;30.40
56268;DHT22;42175;46.930;9.532;2023-03-01T17:23:36;22.70;30.30
56268;DHT22;42175;46.930;9.532;2023-03-01T17:26:03;22.70;30.20
56268;DHT22;42175;46.930;9.532;2023-03-01T17:28:31;22.70;30.30
56268;DHT22;42175;46.930;9.532;2023-03-01T17:30:59;22.70;30.30
56268;DHT22;42175;46.930;9.532;2023-03-01T17:33:25;22.70;30.30
56268;DHT22;42175;46.930;9.532;2023-03-01T17:35:50;22.70;30.40
56268;DHT22;42175;46.930;9.532;2023-03-01T17:38:17;22.70;30.30
56268;DHT22;42175;46.930;9.532;2023-03-01T17:40:43;22.70;30.40
56268;DHT22;42175;46.930;9.532;2023-03-01T17:43:13;22.70;30.30
56268;DHT22;42175;46.930;9.532;2023-03-01T17:45:39;22.70;30.40
56268;DHT22;42175;46.930;9.532;2023-03-01T17:48:08;22.70;30.30
56268;DHT22;42175;46.930;9.532;2023-03-01T17:50:37;22.80;30.50
56268;DHT22;42175;46.930;9.532;2023-03-01T17:53:03;22.70;30.40
56268;DHT22;42175;46.930;9.532;2023-03-01T17:55:37;22.70;30.40
56268;DHT22;42175;46.930;9.532;2023-03-01T17:58:05;22.70;30.60
56268;DHT22;42175;46.930;9.532;2023-03-01T18:00:32;22.80;30.60
56268;DHT22;42175;46.930;9.532;2023-03-01T18:02:57;22.70;30.50